Time,TemperatureF,DewpointF,PressureIn,WindDirection,WindDirectionDegrees,WindSpeedMPH,WindSpeedGustMPH,Humidity,HourlyPrecipIn,Conditions,Clouds,dailyrainin,SoftwareType,DateUTC
2013-11-04 00:02:00,27.1,20.0,30.46,NNW,342,0.0,0.0,74,0.00,,,0.00,weatherlink.com 1.10,2013-11-04 05:02:00,
2013-11-04 00:17:00,26.8,20.0,30.47,NNW,342,0.0,0.0,75,0.00,,,0.00,weatherlink.com 1.10,2013-11-04 05:17:00,
2013-11-04 00:32:00,26.5,20.0,30.48,NNW,342,0.0,0.0,75,0.00,,,0.00,weatherlink.com 1.10,2013-11-04 05:32:00,
2013-11-04 00:47:00,25.9,19.0,30.49,NNW,342,0.0,0.0,76,0.00,,,0.00,weatherlink.com 1.10,2013-11-04 05:47:00,
2013-11-04 01:02:00,25.5,19.0,30.50,NNW,342,0.0,0.0,77,0.00,,,0.00,weatherlink.com 1.10,2013-11-04 06:02:00,
2013-11-04 01:17:00,25.1,19.0,30.50,NNW,342,0.0,0.0,78,0.00,,,0.00,weatherlink.com 1.10,2013-11-04 06:17:00,
2013-11-04 01:32:00,24.7,19.0,30.51,NNW,342,0.0,0.0,79,0.00,,,0.00,weatherlink.com 1.10,2013-11-04 06:32:00,
2013-11-04 01:47:00,24.5,20.0,30.52,NNW,342,0.0,0.0,82,0.00,,,0.00,weatherlink.com 1.10,2013-11-04 06:47:00,
2013-11-04 02:02:00,24.2,20.0,30.53,NNW,342,0.0,0.0,83,0.00,,,0.00,weatherlink.com 1.10,2013-11-04 07:02:00,
2013-11-04 02:17:00,24.0,20.0,30.53,NNW,342,0.0,0.0,85,0.00,,,0.00,weatherlink.com 1.10,2013-11-04 07:17:00,
2013-11-04 02:32:00,23.7,20.0,30.52,NNW,342,0.0,0.0,85,0.00,,,0.00,weatherlink.com 1.10,2013-11-04 07:32:00,
2013-11-04 02:47:00,23.4,20.0,30.52,NNW,342,0.0,0.0,86,0.00,,,0.00,weatherlink.com 1.10,2013-11-04 07:47:00,
2013-11-04 03:02:00,23.2,20.0,30.53,NNW,342,0.0,0.0,86,0.00,,,0.00,weatherlink.com 1.10,2013-11-04 08:02:00,
2013-11-04 03:17:00,23.2,20.0,30.53,NNW,342,0.0,0.0,86,0.00,,,0.00,weatherlink.com 1.10,2013-11-04 08:17:00,
2013-11-04 03:32:00,23.1,20.0,30.54,NNW,342,0.0,0.0,86,0.00,,,0.00,weatherlink.com 1.10,2013-11-04 08:32:00,
2013-11-04 03:47:00,23.1,20.0,30.55,NNW,342,0.0,0.0,87,0.00,,,0.00,weatherlink.com 1.10,2013-11-04 08:47:00,
2013-11-04 04:02:00,23.2,20.0,30.55,NNW,342,0.0,0.0,87,0.00,,,0.00,weatherlink.com 1.10,2013-11-04 09:02:00,
2013-11-04 04:17:00,23.0,20.0,30.56,NNW,342,0.0,0.0,87,0.00,,,0.00,weatherlink.com 1.10,2013-11-04 09:17:00,
2013-11-04 04:32:00,22.6,19.0,30.57,NNW,342,0.0,0.0,87,0.00,,,0.00,weatherlink.com 1.10,2013-11-04 09:32:00,
2013-11-04 04:47:00,22.2,19.0,30.57,NNW,342,0.0,0.0,87,0.00,,,0.00,weatherlink.com 1.10,2013-11-04 09:47:00,
2013-11-04 05:02:00,21.9,19.0,30.58,NNW,342,0.0,0.0,88,0.00,,,0.00,weatherlink.com 1.10,2013-11-04 10:02:00,
2013-11-04 05:17:00,21.6,19.0,30.59,NNW,342,0.0,0.0,88,0.00,,,0.00,weatherlink.com 1.10,2013-11-04 10:17:00,
2013-11-04 05:32:00,21.5,19.0,30.60,NNW,342,0.0,0.0,89,0.00,,,0.00,weatherlink.com 1.10,2013-11-04 10:32:00,
2013-11-04 05:47:00,21.3,19.0,30.60,NNW,342,0.0,0.0,89,0.00,,,0.00,weatherlink.com 1.10,2013-11-04 10:47:00,
2013-11-04 06:02:00,21.0,19.0,30.61,NNW,342,0.0,0.0,90,0.00,,,0.00,weatherlink.com 1.10,2013-11-04 11:02:00,
2013-11-04 06:17:00,20.9,19.0,30.61,NNW,342,0.0,0.0,90,0.00,,,0.00,weatherlink.com 1.10,2013-11-04 11:17:00,
2013-11-04 06:32:00,20.9,19.0,30.62,NNW,342,0.0,0.0,91,0.00,,,0.00,weatherlink.com 1.10,2013-11-04 11:32:00,
2013-11-04 06:47:00,20.8,19.0,30.63,NNW,342,0.0,0.0,91,0.00,,,0.00,weatherlink.com 1.10,2013-11-04 11:47:00,
2013-11-04 07:03:00,20.7,19.0,30.63,NNW,342,0.0,0.0,91,0.00,,,0.00,weatherlink.com 1.10,2013-11-04 12:03:00,
2013-11-04 07:18:00,20.8,19.0,30.63,NNW,342,0.0,0.0,92,0.00,,,0.00,weatherlink.com 1.10,2013-11-04 12:18:00,
2013-11-04 07:33:00,23.5,22.0,30.64,NNW,342,0.0,0.0,92,0.00,,,0.00,weatherlink.com 1.10,2013-11-04 12:33:00,
2013-11-04 07:48:00,26.4,22.0,30.65,NNW,342,0.0,0.0,84,0.00,,,0.00,weatherlink.com 1.10,2013-11-04 12:48:00,
2013-11-04 08:03:00,28.5,22.0,30.65,NNW,342,0.0,0.0,77,0.00,,,0.00,weatherlink.com 1.10,2013-11-04 13:03:00,
2013-11-04 08:18:00,30.0,22.0,30.66,NNE,24,0.0,3.0,71,0.00,,,0.00,weatherlink.com 1.10,2013-11-04 13:18:00,
2013-11-04 08:33:00,31.4,22.0,30.66,NNW,348,0.0,0.0,68,0.00,,,0.00,weatherlink.com 1.10,2013-11-04 13:33:00,
2013-11-04 08:48:00,32.7,20.0,30.66,NE,56,3.0,7.0,61,0.00,,,0.00,weatherlink.com 1.10,2013-11-04 13:48:00,
2013-11-04 09:03:00,33.2,20.0,30.66,NW,318,0.0,7.0,58,0.00,,,0.00,weatherlink.com 1.10,2013-11-04 14:03:00,
2013-11-04 09:18:00,33.9,19.0,30.66,NNW,333,0.0,12.0,55,0.00,,,0.00,weatherlink.com 1.10,2013-11-04 14:18:00,
2013-11-04 09:33:00,34.4,20.0,30.67,ENE,74,0.0,9.0,57,0.00,,,0.00,weatherlink.com 1.10,2013-11-04 14:33:00,
2013-11-04 09:48:00,34.3,19.0,30.67,NW,309,3.0,9.0,54,0.00,,,0.00,weatherlink.com 1.10,2013-11-04 14:48:00,
2013-11-04 10:03:00,34.4,20.0,30.67,NW,313,0.0,8.0,55,0.00,,,0.00,weatherlink.com 1.10,2013-11-04 15:03:00,
2013-11-04 10:18:00,35.1,17.0,30.67,NNE,19,4.0,8.0,48,0.00,,,0.00,weatherlink.com 1.10,2013-11-04 15:18:00,
2013-11-04 10:33:00,35.9,18.0,30.67,NE,38,0.0,8.0,49,0.00,,,0.00,weatherlink.com 1.10,2013-11-04 15:33:00,
2013-11-04 10:48:00,35.9,18.0,30.67,East,88,2.0,11.0,48,0.00,,,0.00,weatherlink.com 1.10,2013-11-04 15:48:00,
2013-11-04 11:03:00,35.8,18.0,30.67,ESE,109,2.0,14.0,49,0.00,,,0.00,weatherlink.com 1.10,2013-11-04 16:03:00,
2013-11-04 11:18:00,36.2,18.0,30.66,East,84,0.0,14.0,48,0.00,,,0.00,weatherlink.com 1.10,2013-11-04 16:18:00,
2013-11-04 11:33:00,36.6,19.0,30.66,NNE,27,4.0,10.0,50,0.00,,,0.00,weatherlink.com 1.10,2013-11-04 16:33:00,
2013-11-04 11:48:00,36.9,19.0,30.65,East,100,6.0,12.0,48,0.00,,,0.00,weatherlink.com 1.10,2013-11-04 16:48:00,
2013-11-04 12:03:00,37.2,18.0,30.64,ESE,104,8.0,9.0,47,0.00,,,0.00,weatherlink.com 1.10,2013-11-04 17:03:00,
2013-11-04 12:18:00,37.5,19.0,30.64,ENE,71,0.0,7.0,47,0.00,,,0.00,weatherlink.com 1.10,2013-11-04 17:18:00,
2013-11-04 12:33:00,37.5,18.0,30.64,North,5,0.0,8.0,45,0.00,,,0.00,weatherlink.com 1.10,2013-11-04 17:33:00,
2013-11-04 12:48:00,38.1,18.0,30.64,NNW,338,1.0,7.0,45,0.00,,,0.00,weatherlink.com 1.10,2013-11-04 17:48:00,
2013-11-04 13:03:00,39.0,20.0,30.64,NE,41,0.0,6.0,46,0.00,,,0.00,weatherlink.com 1.10,2013-11-04 18:03:00,
2013-11-04 13:18:00,39.0,19.0,30.63,North,360,0.0,9.0,44,0.00,,,0.00,weatherlink.com 1.10,2013-11-04 18:18:00,
2013-11-04 13:48:00,38.8,18.0,30.63,NNW,327,3.0,6.0,44,0.00,,,0.00,weatherlink.com 1.10,2013-11-04 18:48:00,
2013-11-04 14:03:00,39.5,19.0,30.63,NNW,337,3.0,4.0,44,0.00,,,0.00,weatherlink.com 1.10,2013-11-04 19:03:00,
2013-11-04 14:18:00,39.7,18.0,30.63,East,88,0.0,3.0,42,0.00,,,0.00,weatherlink.com 1.10,2013-11-04 19:18:00,
2013-11-04 14:33:00,39.3,17.0,30.63,WNW,286,5.0,6.0,41,0.00,,,0.00,weatherlink.com 1.10,2013-11-04 19:33:00,
2013-11-04 14:48:00,39.6,19.0,30.63,NNW,332,0.0,6.0,43,0.00,,,0.00,weatherlink.com 1.10,2013-11-04 19:48:00,
2013-11-04 15:03:00,40.0,18.0,30.63,North,355,2.0,7.0,41,0.00,,,0.00,weatherlink.com 1.10,2013-11-04 20:03:00,
2013-11-04 15:18:00,39.7,18.0,30.63,North,355,0.0,3.0,41,0.00,,,0.00,weatherlink.com 1.10,2013-11-04 20:18:00,
2013-11-04 15:33:00,39.6,17.0,30.63,East,98,0.0,4.0,40,0.00,,,0.00,weatherlink.com 1.10,2013-11-04 20:33:00,
2013-11-04 15:48:00,39.0,17.0,30.62,ENE,57,0.0,3.0,41,0.00,,,0.00,weatherlink.com 1.10,2013-11-04 20:48:00,
2013-11-04 16:03:00,38.5,18.0,30.63,NE,43,0.0,2.0,43,0.00,,,0.00,weatherlink.com 1.10,2013-11-04 21:03:00,
2013-11-04 16:18:00,38.3,18.0,30.62,North,5,0.0,3.0,44,0.00,,,0.00,weatherlink.com 1.10,2013-11-04 21:18:00,
2013-11-04 16:33:00,38.1,18.0,30.63,ENE,68,0.0,3.0,44,0.00,,,0.00,weatherlink.com 1.10,2013-11-04 21:33:00,
2013-11-04 16:48:00,37.8,18.0,30.64,ENE,68,0.0,0.0,45,0.00,,,0.00,weatherlink.com 1.10,2013-11-04 21:48:00,
2013-11-04 17:04:00,37.3,19.0,30.64,ENE,68,0.0,0.0,47,0.00,,,0.00,weatherlink.com 1.10,2013-11-04 22:04:00,
2013-11-04 17:19:00,36.5,19.0,30.64,ENE,68,0.0,0.0,49,0.00,,,0.00,weatherlink.com 1.10,2013-11-04 22:19:00,
2013-11-04 17:34:00,35.4,20.0,30.64,ENE,68,0.0,0.0,53,0.00,,,0.00,weatherlink.com 1.10,2013-11-04 22:34:00,
2013-11-04 17:49:00,34.3,20.0,30.65,ENE,68,0.0,0.0,55,0.00,,,0.00,weatherlink.com 1.10,2013-11-04 22:49:00,
2013-11-04 18:04:00,33.2,19.0,30.65,ENE,68,0.0,0.0,57,0.00,,,0.00,weatherlink.com 1.10,2013-11-04 23:04:00,
2013-11-04 18:19:00,32.2,19.0,30.65,ENE,68,0.0,0.0,59,0.00,,,0.00,weatherlink.com 1.10,2013-11-04 23:19:00,
2013-11-04 18:34:00,31.2,19.0,30.64,ENE,68,0.0,0.0,62,0.00,,,0.00,weatherlink.com 1.10,2013-11-04 23:34:00,
2013-11-04 18:49:00,30.5,20.0,30.64,ENE,68,0.0,0.0,64,0.00,,,0.00,weatherlink.com 1.10,2013-11-04 23:49:00,
2013-11-04 19:04:00,29.8,20.0,30.64,ENE,68,0.0,0.0,67,0.00,,,0.00,weatherlink.com 1.10,2013-11-05 00:04:00,
2013-11-04 19:19:00,29.1,20.0,30.64,ENE,68,0.0,0.0,69,0.00,,,0.00,weatherlink.com 1.10,2013-11-05 00:19:00,
2013-11-04 19:34:00,28.5,20.0,30.63,ENE,68,0.0,0.0,70,0.00,,,0.00,weatherlink.com 1.10,2013-11-05 00:34:00,
2013-11-04 19:49:00,28.1,20.0,30.63,ENE,68,0.0,0.0,71,0.00,,,0.00,weatherlink.com 1.10,2013-11-05 00:49:00,
2013-11-04 20:04:00,27.7,19.0,30.63,ENE,68,0.0,0.0,71,0.00,,,0.00,weatherlink.com 1.10,2013-11-05 01:04:00,
2013-11-04 20:19:00,27.3,19.0,30.63,ENE,68,0.0,0.0,72,0.00,,,0.00,weatherlink.com 1.10,2013-11-05 01:19:00,
2013-11-04 20:34:00,26.8,19.0,30.63,ENE,68,0.0,0.0,73,0.00,,,0.00,weatherlink.com 1.10,2013-11-05 01:34:00,
2013-11-04 20:49:00,26.4,19.0,30.64,ENE,68,0.0,0.0,74,0.00,,,0.00,weatherlink.com 1.10,2013-11-05 01:49:00,
2013-11-04 21:04:00,26.1,19.0,30.65,ENE,68,0.0,0.0,75,0.00,,,0.00,weatherlink.com 1.10,2013-11-05 02:04:00,
2013-11-04 21:19:00,25.9,19.0,30.65,ENE,68,0.0,0.0,76,0.00,,,0.00,weatherlink.com 1.10,2013-11-05 02:19:00,
2013-11-04 21:34:00,25.9,20.0,30.65,ENE,68,0.0,0.0,78,0.00,,,0.00,weatherlink.com 1.10,2013-11-05 02:34:00,
2013-11-04 21:49:00,25.9,20.0,30.64,ENE,68,0.0,0.0,78,0.00,,,0.00,weatherlink.com 1.10,2013-11-05 02:49:00,
2013-11-04 22:04:00,25.7,20.0,30.64,ENE,68,0.0,0.0,80,0.00,,,0.00,weatherlink.com 1.10,2013-11-05 03:04:00,
2013-11-04 22:19:00,25.6,20.0,30.63,ENE,68,0.0,0.0,80,0.00,,,0.00,weatherlink.com 1.10,2013-11-05 03:19:00,
2013-11-04 22:34:00,25.5,20.0,30.64,ENE,68,0.0,0.0,80,0.00,,,0.00,weatherlink.com 1.10,2013-11-05 03:34:00,
2013-11-04 22:49:00,25.7,21.0,30.65,ENE,68,0.0,0.0,81,0.00,,,0.00,weatherlink.com 1.10,2013-11-05 03:49:00,
2013-11-04 23:04:00,26.0,21.0,30.65,ENE,68,0.0,0.0,81,0.00,,,0.00,weatherlink.com 1.10,2013-11-05 04:04:00,
2013-11-04 23:19:00,26.2,21.0,30.65,ENE,68,0.0,0.0,82,0.00,,,0.00,weatherlink.com 1.10,2013-11-05 04:19:00,
2013-11-04 23:34:00,26.3,22.0,30.65,ENE,68,0.0,0.0,82,0.00,,,0.00,weatherlink.com 1.10,2013-11-05 04:34:00,
2013-11-04 23:49:00,26.4,22.0,30.65,ENE,68,0.0,0.0,82,0.00,,,0.00,weatherlink.com 1.10,2013-11-05 04:49:00,